ボードー の空港の天気 - METARとTAF

Bodo Vi ( ENBO / BOO ) - ノルウェー ヌールラン県ボードー
飛行場実況気象(Metar)
観測時間07/16 08:20 CEST (07/16 06:20 UTC)
風向・風速北北東 2m/s
視程10km以上
天気現象
少しの雲 雲底高度 150m
全天の4割程度の雲 雲底高度 1070m
全天の8割程度の雲 雲底高度 1830m
気温15℃
湿度94%
気圧1017hPa
METARENBO 160620Z 03004KT 9999 FEW005 SCT035 BKN060 15/14 Q1017 NOSIG
過去の天気等 Google飛行場航空写真 Wunderground天気予報

過去48時間のMETAR

飛行場予報(TAF)
発表時間: -
16日13時 CEST ~ 16日15時 CEST に徐々に
風向・風速北北東 5m/s
16日20時 CEST ~ 16日22時 CEST に徐々に
風向・風速東 6m/s
TAF ENBO 1606/1706 09008KT 9999 SCT040
BECMG 1611/1613 02010KT
BECMG 1618/1620 09012KT